sensor_id;sensor_type;location;lat;lon;timestamp;P1;durP1;ratioP1;P2;durP2;ratioP2
82038;SDS011;71610;42.628;23.378;2024-02-26T00:01:40;1.98;;;1.80;;
82038;SDS011;71610;42.628;23.378;2024-02-26T00:04:08;3.65;;;1.75;;
82038;SDS011;71610;42.628;23.378;2024-02-26T00:06:34;1.73;;;1.63;;
82038;SDS011;71610;42.628;23.378;2024-02-26T00:09:00;1.70;;;1.58;;
82038;SDS011;71610;42.628;23.378;2024-02-26T00:11:27;1.60;;;1.50;;
82038;SDS011;71610;42.628;23.378;2024-02-26T00:13:53;1.60;;;1.50;;
82038;SDS011;71610;42.628;23.378;2024-02-26T00:16:19;2.13;;;1.92;;
82038;SDS011;71610;42.628;23.378;2024-02-26T00:18:45;1.65;;;1.55;;
82038;SDS011;71610;42.628;23.378;2024-02-26T00:21:11;2.08;;;1.90;;
82038;SDS011;71610;42.628;23.378;2024-02-26T00:23:37;2.17;;;1.98;;
82038;SDS011;71610;42.628;23.378;2024-02-26T00:26:02;1.80;;;1.70;;
82038;SDS011;71610;42.628;23.378;2024-02-26T00:28:28;2.10;;;1.45;;
82038;SDS011;71610;42.628;23.378;2024-02-26T00:30:54;2.05;;;1.70;;
82038;SDS011;71610;42.628;23.378;2024-02-26T00:33:21;1.95;;;1.75;;
82038;SDS011;71610;42.628;23.378;2024-02-26T00:35:47;2.10;;;1.90;;
82038;SDS011;71610;42.628;23.378;2024-02-26T00:38:13;1.75;;;1.60;;
82038;SDS011;71610;42.628;23.378;2024-02-26T00:40:40;1.67;;;1.58;;
82038;SDS011;71610;42.628;23.378;2024-02-26T00:43:08;1.80;;;1.70;;
82038;SDS011;71610;42.628;23.378;2024-02-26T00:45:34;2.08;;;1.88;;
82038;SDS011;71610;42.628;23.378;2024-02-26T00:48:00;1.98;;;1.80;;
82038;SDS011;71610;42.628;23.378;2024-02-26T00:50:32;1.95;;;1.70;;
82038;SDS011;71610;42.628;23.378;2024-02-26T00:52:58;2.30;;;1.63;;
82038;SDS011;71610;42.628;23.378;2024-02-26T00:55:25;1.77;;;1.67;;
82038;SDS011;71610;42.628;23.378;2024-02-26T00:57:50;1.83;;;1.60;;
82038;SDS011;71610;42.628;23.378;2024-02-26T01:00:16;2.10;;;1.90;;
82038;SDS011;71610;42.628;23.378;2024-02-26T01:02:42;1.92;;;1.65;;
82038;SDS011;71610;42.628;23.378;2024-02-26T01:05:11;1.50;;;1.40;;
82038;SDS011;71610;42.628;23.378;2024-02-26T01:07:37;1.83;;;1.67;;
82038;SDS011;71610;42.628;23.378;2024-02-26T01:10:04;1.52;;;1.42;;
82038;SDS011;71610;42.628;23.378;2024-02-26T01:12:31;1.67;;;1.58;;
82038;SDS011;71610;42.628;23.378;2024-02-26T01:14:57;2.00;;;1.80;;
82038;SDS011;71610;42.628;23.378;2024-02-26T01:17:23;2.25;;;2.00;;
82038;SDS011;71610;42.628;23.378;2024-02-26T01:19:49;1.77;;;1.67;;
82038;SDS011;71610;42.628;23.378;2024-02-26T01:22:15;2.00;;;1.80;;
82038;SDS011;71610;42.628;23.378;2024-02-26T01:24:40;1.90;;;1.80;;
82038;SDS011;71610;42.628;23.378;2024-02-26T01:27:06;2.13;;;1.92;;
82038;SDS011;71610;42.628;23.378;2024-02-26T01:29:33;3.03;;;1.75;;
82038;SDS011;71610;42.628;23.378;2024-02-26T01:31:59;2.03;;;1.75;;
82038;SDS011;71610;42.628;23.378;2024-02-26T01:34:25;2.08;;;1.88;;
82038;SDS011;71610;42.628;23.378;2024-02-26T01:36:51;2.20;;;2.00;;
82038;SDS011;71610;42.628;23.378;2024-02-26T01:39:17;1.60;;;1.42;;
82038;SDS011;71610;42.628;23.378;2024-02-26T01:41:43;1.70;;;1.60;;
82038;SDS011;71610;42.628;23.378;2024-02-26T01:44:10;2.33;;;1.85;;
82038;SDS011;71610;42.628;23.378;2024-02-26T01:46:38;2.58;;;1.73;;
82038;SDS011;71610;42.628;23.378;2024-02-26T01:49:04;1.95;;;1.85;;
82038;SDS011;71610;42.628;23.378;2024-02-26T01:51:30;2.15;;;1.50;;
82038;SDS011;71610;42.628;23.378;2024-02-26T01:53:57;1.80;;;1.70;;
82038;SDS011;71610;42.628;23.378;2024-02-26T01:56:25;1.95;;;1.50;;
82038;SDS011;71610;42.628;23.378;2024-02-26T01:58:55;1.80;;;1.70;;
82038;SDS011;71610;42.628;23.378;2024-02-26T02:01:21;1.88;;;1.77;;
82038;SDS011;71610;42.628;23.378;2024-02-26T02:03:50;1.83;;;1.73;;
82038;SDS011;71610;42.628;23.378;2024-02-26T02:06:16;1.80;;;1.70;;
82038;SDS011;71610;42.628;23.378;2024-02-26T02:08:43;1.80;;;1.70;;
82038;SDS011;71610;42.628;23.378;2024-02-26T02:11:09;1.63;;;1.52;;
82038;SDS011;71610;42.628;23.378;2024-02-26T02:13:36;2.15;;;1.80;;
82038;SDS011;71610;42.628;23.378;2024-02-26T02:16:03;1.85;;;1.75;;
82038;SDS011;71610;42.628;23.378;2024-02-26T02:18:29;1.85;;;1.70;;
82038;SDS011;71610;42.628;23.378;2024-02-26T02:20:55;2.13;;;1.92;;
82038;SDS011;71610;42.628;23.378;2024-02-26T02:23:24;2.08;;;1.88;;
82038;SDS011;71610;42.628;23.378;2024-02-26T02:25:50;2.50;;;1.73;;
82038;SDS011;71610;42.628;23.378;2024-02-26T02:28:16;1.90;;;1.67;;
82038;SDS011;71610;42.628;23.378;2024-02-26T02:30:42;2.35;;;1.90;;
82038;SDS011;71610;42.628;23.378;2024-02-26T02:33:08;1.77;;;1.60;;
82038;SDS011;71610;42.628;23.378;2024-02-26T02:35:34;2.10;;;1.90;;
82038;SDS011;71610;42.628;23.378;2024-02-26T02:38:00;1.80;;;1.70;;
82038;SDS011;71610;42.628;23.378;2024-02-26T02:40:26;1.85;;;1.55;;
82038;SDS011;71610;42.628;23.378;2024-02-26T02:42:51;1.60;;;1.50;;
82038;SDS011;71610;42.628;23.378;2024-02-26T02:45:17;2.00;;;1.80;;
82038;SDS011;71610;42.628;23.378;2024-02-26T02:47:43;1.60;;;1.50;;
82038;SDS011;71610;42.628;23.378;2024-02-26T02:50:08;1.80;;;1.70;;
82038;SDS011;71610;42.628;23.378;2024-02-26T02:52:34;1.80;;;1.70;;
82038;SDS011;71610;42.628;23.378;2024-02-26T02:55:00;2.20;;;2.00;;
82038;SDS011;71610;42.628;23.378;2024-02-26T02:57:26;2.10;;;1.67;;
82038;SDS011;71610;42.628;23.378;2024-02-26T02:59:52;2.10;;;1.90;;
82038;SDS011;71610;42.628;23.378;2024-02-26T03:02:17;1.70;;;1.60;;
82038;SDS011;71610;42.628;23.378;2024-02-26T03:04:43;2.33;;;1.70;;
82038;SDS011;71610;42.628;23.378;2024-02-26T03:07:09;1.92;;;1.60;;
82038;SDS011;71610;42.628;23.378;2024-02-26T03:09:34;2.00;;;1.80;;
82038;SDS011;71610;42.628;23.378;2024-02-26T03:12:00;1.67;;;1.58;;
82038;SDS011;71610;42.628;23.378;2024-02-26T03:14:26;2.00;;;1.80;;
82038;SDS011;71610;42.628;23.378;2024-02-26T03:16:56;1.90;;;1.65;;
82038;SDS011;71610;42.628;23.378;2024-02-26T03:21:47;2.17;;;1.98;;
82038;SDS011;71610;42.628;23.378;2024-02-26T03:24:13;1.58;;;1.48;;
82038;SDS011;71610;42.628;23.378;2024-02-26T03:26:39;2.10;;;1.80;;
82038;SDS011;71610;42.628;23.378;2024-02-26T03:29:05;1.70;;;1.60;;
82038;SDS011;71610;42.628;23.378;2024-02-26T03:31:31;2.20;;;2.00;;
82038;SDS011;71610;42.628;23.378;2024-02-26T03:33:56;1.92;;;1.77;;
82038;SDS011;71610;42.628;23.378;2024-02-26T03:36:22;2.28;;;1.73;;
82038;SDS011;71610;42.628;23.378;2024-02-26T03:38:48;1.90;;;1.80;;
82038;SDS011;71610;42.628;23.378;2024-02-26T03:41:14;1.95;;;1.77;;
82038;SDS011;71610;42.628;23.378;2024-02-26T03:43:40;2.20;;;2.00;;
82038;SDS011;71610;42.628;23.378;2024-02-26T03:46:09;2.47;;;2.05;;
82038;SDS011;71610;42.628;23.378;2024-02-26T03:48:39;2.08;;;1.88;;
82038;SDS011;71610;42.628;23.378;2024-02-26T03:51:05;1.80;;;1.70;;
82038;SDS011;71610;42.628;23.378;2024-02-26T03:53:33;2.13;;;1.92;;
82038;SDS011;71610;42.628;23.378;2024-02-26T03:56:02;3.30;;;1.98;;
82038;SDS011;71610;42.628;23.378;2024-02-26T04:00:54;2.17;;;1.95;;
82038;SDS011;71610;42.628;23.378;2024-02-26T04:03:20;2.10;;;1.90;;
82038;SDS011;71610;42.628;23.378;2024-02-26T04:05:46;2.88;;;1.90;;
82038;SDS011;71610;42.628;23.378;2024-02-26T04:08:12;1.95;;;1.85;;
82038;SDS011;71610;42.628;23.378;2024-02-26T04:10:38;2.20;;;2.00;;
82038;SDS011;71610;42.628;23.378;2024-02-26T04:13:04;2.22;;;2.03;;
82038;SDS011;71610;42.628;23.378;2024-02-26T04:15:31;1.80;;;1.70;;
82038;SDS011;71610;42.628;23.378;2024-02-26T04:17:57;2.33;;;2.08;;
82038;SDS011;71610;42.628;23.378;2024-02-26T04:20:23;2.33;;;1.98;;
82038;SDS011;71610;42.628;23.378;2024-02-26T04:22:48;2.15;;;1.85;;
82038;SDS011;71610;42.628;23.378;2024-02-26T04:25:14;2.15;;;1.95;;
82038;SDS011;71610;42.628;23.378;2024-02-26T04:27:40;1.98;;;1.75;;
82038;SDS011;71610;42.628;23.378;2024-02-26T04:30:06;2.33;;;1.92;;
82038;SDS011;71610;42.628;23.378;2024-02-26T04:32:33;1.98;;;1.88;;
82038;SDS011;71610;42.628;23.378;2024-02-26T04:34:59;2.08;;;1.90;;
82038;SDS011;71610;42.628;23.378;2024-02-26T04:37:25;2.00;;;1.80;;
82038;SDS011;71610;42.628;23.378;2024-02-26T04:42:23;1.80;;;1.70;;
82038;SDS011;71610;42.628;23.378;2024-02-26T04:44:48;1.83;;;1.73;;
82038;SDS011;71610;42.628;23.378;2024-02-26T04:47:14;2.13;;;1.90;;
82038;SDS011;71610;42.628;23.378;2024-02-26T04:49:40;3.28;;;1.90;;
82038;SDS011;71610;42.628;23.378;2024-02-26T04:52:06;2.95;;;1.70;;
82038;SDS011;71610;42.628;23.378;2024-02-26T04:54:32;2.22;;;1.85;;
82038;SDS011;71610;42.628;23.378;2024-02-26T04:56:57;2.58;;;1.90;;
82038;SDS011;71610;42.628;23.378;2024-02-26T04:59:23;2.45;;;2.17;;
82038;SDS011;71610;42.628;23.378;2024-02-26T05:01:49;1.80;;;1.70;;
82038;SDS011;71610;42.628;23.378;2024-02-26T05:04:17;2.38;;;1.98;;
82038;SDS011;71610;42.628;23.378;2024-02-26T05:06:43;2.00;;;1.80;;
82038;SDS011;71610;42.628;23.378;2024-02-26T05:09:09;2.53;;;1.98;;
82038;SDS011;71610;42.628;23.378;2024-02-26T05:11:34;2.03;;;1.92;;
82038;SDS011;71610;42.628;23.378;2024-02-26T05:14:00;2.30;;;2.10;;
82038;SDS011;71610;42.628;23.378;2024-02-26T05:16:26;3.35;;;3.05;;
82038;SDS011;71610;42.628;23.378;2024-02-26T05:18:52;7.38;;;3.80;;
82038;SDS011;71610;42.628;23.378;2024-02-26T05:21:18;7.70;;;4.72;;
82038;SDS011;71610;42.628;23.378;2024-02-26T05:23:44;9.65;;;5.20;;
82038;SDS011;71610;42.628;23.378;2024-02-26T05:26:10;11.35;;;5.00;;
82038;SDS011;71610;42.628;23.378;2024-02-26T05:28:36;9.25;;;5.25;;
82038;SDS011;71610;42.628;23.378;2024-02-26T05:31:04;7.07;;;5.50;;
82038;SDS011;71610;42.628;23.378;2024-02-26T05:33:30;7.07;;;5.63;;
82038;SDS011;71610;42.628;23.378;2024-02-26T05:35:56;6.85;;;5.72;;
82038;SDS011;71610;42.628;23.378;2024-02-26T05:38:28;9.50;;;6.35;;
82038;SDS011;71610;42.628;23.378;2024-02-26T05:40:54;8.73;;;6.20;;
82038;SDS011;71610;42.628;23.378;2024-02-26T05:43:20;8.25;;;6.03;;
82038;SDS011;71610;42.628;23.378;2024-02-26T05:45:45;10.55;;;6.32;;
82038;SDS011;71610;42.628;23.378;2024-02-26T05:48:11;10.90;;;7.00;;
82038;SDS011;71610;42.628;23.378;2024-02-26T05:50:37;14.70;;;7.50;;
82038;SDS011;71610;42.628;23.378;2024-02-26T05:53:03;9.45;;;7.03;;
82038;SDS011;71610;42.628;23.378;2024-02-26T05:55:29;9.98;;;7.40;;
82038;SDS011;71610;42.628;23.378;2024-02-26T05:57:55;11.82;;;7.10;;
82038;SDS011;71610;42.628;23.378;2024-02-26T06:00:20;14.55;;;6.75;;
82038;SDS011;71610;42.628;23.378;2024-02-26T06:02:46;21.08;;;6.80;;
82038;SDS011;71610;42.628;23.378;2024-02-26T06:05:12;17.92;;;6.05;;
82038;SDS011;71610;42.628;23.378;2024-02-26T06:07:38;11.13;;;5.68;;
82038;SDS011;71610;42.628;23.378;2024-02-26T06:10:03;14.55;;;6.28;;
82038;SDS011;71610;42.628;23.378;2024-02-26T06:12:30;26.80;;;6.43;;
82038;SDS011;71610;42.628;23.378;2024-02-26T06:14:56;17.63;;;6.28;;
82038;SDS011;71610;42.628;23.378;2024-02-26T06:17:22;12.98;;;6.05;;
82038;SDS011;71610;42.628;23.378;2024-02-26T06:19:48;7.63;;;5.40;;
82038;SDS011;71610;42.628;23.378;2024-02-26T06:22:14;18.55;;;5.97;;
82038;SDS011;71610;42.628;23.378;2024-02-26T06:24:40;20.85;;;6.43;;
82038;SDS011;71610;42.628;23.378;2024-02-26T06:27:06;33.90;;;6.95;;
82038;SDS011;71610;42.628;23.378;2024-02-26T06:29:31;21.95;;;6.40;;
82038;SDS011;71610;42.628;23.378;2024-02-26T06:31:57;51.47;;;6.55;;
82038;SDS011;71610;42.628;23.378;2024-02-26T06:34:23;44.53;;;7.45;;
82038;SDS011;71610;42.628;23.378;2024-02-26T06:36:49;32.55;;;6.22;;
82038;SDS011;71610;42.628;23.378;2024-02-26T06:39:15;34.53;;;7.07;;
82038;SDS011;71610;42.628;23.378;2024-02-26T06:41:41;48.70;;;7.75;;
82038;SDS011;71610;42.628;23.378;2024-02-26T06:44:07;48.67;;;7.80;;
82038;SDS011;71610;42.628;23.378;2024-02-26T06:46:32;58.97;;;7.68;;
82038;SDS011;71610;42.628;23.378;2024-02-26T06:48:58;54.42;;;7.65;;
82038;SDS011;71610;42.628;23.378;2024-02-26T06:51:24;46.58;;;7.13;;
82038;SDS011;71610;42.628;23.378;2024-02-26T06:53:50;55.97;;;7.93;;
82038;SDS011;71610;42.628;23.378;2024-02-26T06:56:16;44.30;;;8.05;;
82038;SDS011;71610;42.628;23.378;2024-02-26T06:58:42;35.25;;;7.38;;
82038;SDS011;71610;42.628;23.378;2024-02-26T07:01:08;48.47;;;7.78;;
82038;SDS011;71610;42.628;23.378;2024-02-26T07:03:34;43.25;;;6.57;;
82038;SDS011;71610;42.628;23.378;2024-02-26T07:06:00;41.00;;;6.90;;
82038;SDS011;71610;42.628;23.378;2024-02-26T07:08:25;48.30;;;7.10;;
82038;SDS011;71610;42.628;23.378;2024-02-26T07:10:51;39.08;;;7.57;;
82038;SDS011;71610;42.628;23.378;2024-02-26T07:13:17;52.63;;;8.00;;
82038;SDS011;71610;42.628;23.378;2024-02-26T07:15:43;34.47;;;6.72;;
82038;SDS011;71610;42.628;23.378;2024-02-26T07:18:08;40.42;;;6.70;;
82038;SDS011;71610;42.628;23.378;2024-02-26T07:20:35;35.30;;;6.78;;
82038;SDS011;71610;42.628;23.378;2024-02-26T07:23:01;48.05;;;7.03;;
82038;SDS011;71610;42.628;23.378;2024-02-26T07:25:28;37.53;;;6.75;;
82038;SDS011;71610;42.628;23.378;2024-02-26T07:27:53;37.42;;;6.43;;
82038;SDS011;71610;42.628;23.378;2024-02-26T07:30:19;32.85;;;6.90;;
82038;SDS011;71610;42.628;23.378;2024-02-26T07:32:45;31.90;;;6.65;;
82038;SDS011;71610;42.628;23.378;2024-02-26T07:35:11;33.47;;;6.50;;
82038;SDS011;71610;42.628;23.378;2024-02-26T07:37:36;64.20;;;7.35;;
82038;SDS011;71610;42.628;23.378;2024-02-26T07:40:03;35.30;;;6.25;;
82038;SDS011;71610;42.628;23.378;2024-02-26T07:42:29;37.35;;;6.10;;
82038;SDS011;71610;42.628;23.378;2024-02-26T07:44:54;33.63;;;5.90;;
82038;SDS011;71610;42.628;23.378;2024-02-26T07:47:20;24.98;;;6.72;;
82038;SDS011;71610;42.628;23.378;2024-02-26T07:49:46;44.72;;;7.50;;
82038;SDS011;71610;42.628;23.378;2024-02-26T07:52:12;45.08;;;6.70;;
82038;SDS011;71610;42.628;23.378;2024-02-26T07:54:38;23.58;;;6.57;;
82038;SDS011;71610;42.628;23.378;2024-02-26T07:57:04;30.63;;;6.47;;
82038;SDS011;71610;42.628;23.378;2024-02-26T07:59:30;26.20;;;6.78;;
82038;SDS011;71610;42.628;23.378;2024-02-26T08:01:57;18.90;;;5.65;;
82038;SDS011;71610;42.628;23.378;2024-02-26T08:04:23;38.47;;;6.15;;
82038;SDS011;71610;42.628;23.378;2024-02-26T08:06:48;38.65;;;6.88;;
82038;SDS011;71610;42.628;23.378;2024-02-26T08:09:14;40.35;;;6.28;;
82038;SDS011;71610;42.628;23.378;2024-02-26T08:11:40;22.67;;;6.35;;
82038;SDS011;71610;42.628;23.378;2024-02-26T08:14:05;18.85;;;5.30;;
82038;SDS011;71610;42.628;23.378;2024-02-26T08:16:31;23.75;;;5.70;;
82038;SDS011;71610;42.628;23.378;2024-02-26T08:18:57;21.52;;;5.38;;
82038;SDS011;71610;42.628;23.378;2024-02-26T08:21:23;21.20;;;5.28;;
82038;SDS011;71610;42.628;23.378;2024-02-26T08:23:49;22.70;;;5.78;;
82038;SDS011;71610;42.628;23.378;2024-02-26T08:26:14;21.67;;;5.80;;
82038;SDS011;71610;42.628;23.378;2024-02-26T08:28:40;24.85;;;5.88;;
82038;SDS011;71610;42.628;23.378;2024-02-26T08:31:06;22.45;;;5.25;;
82038;SDS011;71610;42.628;23.378;2024-02-26T08:33:32;21.48;;;5.57;;
82038;SDS011;71610;42.628;23.378;2024-02-26T08:36:03;19.90;;;5.32;;
82038;SDS011;71610;42.628;23.378;2024-02-26T08:38:30;23.63;;;5.43;;
82038;SDS011;71610;42.628;23.378;2024-02-26T08:40:55;21.27;;;4.82;;
82038;SDS011;71610;42.628;23.378;2024-02-26T08:43:21;11.52;;;4.78;;
82038;SDS011;71610;42.628;23.378;2024-02-26T08:45:47;17.98;;;5.25;;
82038;SDS011;71610;42.628;23.378;2024-02-26T08:48:13;12.80;;;4.50;;
82038;SDS011;71610;42.628;23.378;2024-02-26T08:50:38;20.88;;;4.88;;
82038;SDS011;71610;42.628;23.378;2024-02-26T08:53:04;8.30;;;4.35;;
82038;SDS011;71610;42.628;23.378;2024-02-26T08:55:30;15.90;;;4.63;;
82038;SDS011;71610;42.628;23.378;2024-02-26T08:57:56;11.52;;;4.47;;
82038;SDS011;71610;42.628;23.378;2024-02-26T09:00:22;17.48;;;4.38;;
82038;SDS011;71610;42.628;23.378;2024-02-26T09:02:48;11.57;;;4.03;;
82038;SDS011;71610;42.628;23.378;2024-02-26T09:05:14;18.55;;;4.95;;
82038;SDS011;71610;42.628;23.378;2024-02-26T09:07:40;12.43;;;4.00;;
82038;SDS011;71610;42.628;23.378;2024-02-26T09:10:06;9.60;;;3.88;;
82038;SDS011;71610;42.628;23.378;2024-02-26T09:12:35;9.77;;;4.07;;
82038;SDS011;71610;42.628;23.378;2024-02-26T09:15:02;8.52;;;4.20;;
82038;SDS011;71610;42.628;23.378;2024-02-26T09:17:28;10.80;;;4.03;;
82038;SDS011;71610;42.628;23.378;2024-02-26T09:19:54;8.90;;;4.45;;
82038;SDS011;71610;42.628;23.378;2024-02-26T09:22:20;11.90;;;5.45;;
82038;SDS011;71610;42.628;23.378;2024-02-26T09:24:45;14.23;;;7.45;;
82038;SDS011;71610;42.628;23.378;2024-02-26T09:27:11;9.23;;;6.93;;
82038;SDS011;71610;42.628;23.378;2024-02-26T09:29:37;12.93;;;5.47;;
82038;SDS011;71610;42.628;23.378;2024-02-26T09:32:03;13.73;;;5.25;;
82038;SDS011;71610;42.628;23.378;2024-02-26T09:34:29;8.73;;;4.60;;
82038;SDS011;71610;42.628;23.378;2024-02-26T09:36:54;20.23;;;5.15;;
82038;SDS011;71610;42.628;23.378;2024-02-26T09:39:20;9.75;;;4.90;;
82038;SDS011;71610;42.628;23.378;2024-02-26T09:41:49;13.15;;;4.95;;
82038;SDS011;71610;42.628;23.378;2024-02-26T09:44:15;20.98;;;5.15;;
82038;SDS011;71610;42.628;23.378;2024-02-26T09:46:47;21.67;;;5.07;;
82038;SDS011;71610;42.628;23.378;2024-02-26T09:49:16;20.00;;;5.47;;
82038;SDS011;71610;42.628;23.378;2024-02-26T09:51:43;13.43;;;5.13;;
82038;SDS011;71610;42.628;23.378;2024-02-26T09:54:09;35.38;;;5.80;;
82038;SDS011;71610;42.628;23.378;2024-02-26T09:56:40;20.42;;;5.10;;
82038;SDS011;71610;42.628;23.378;2024-02-26T09:59:07;18.95;;;5.72;;
82038;SDS011;71610;42.628;23.378;2024-02-26T10:01:37;30.45;;;5.47;;
82038;SDS011;71610;42.628;23.378;2024-02-26T10:04:06;29.13;;;6.10;;
82038;SDS011;71610;42.628;23.378;2024-02-26T10:06:36;23.52;;;5.50;;
82038;SDS011;71610;42.628;23.378;2024-02-26T10:09:03;24.23;;;6.13;;
82038;SDS011;71610;42.628;23.378;2024-02-26T10:11:32;82.65;;;7.85;;
82038;SDS011;71610;42.628;23.378;2024-02-26T10:13:58;76.90;;;8.95;;
82038;SDS011;71610;42.628;23.378;2024-02-26T10:16:27;61.58;;;7.70;;
82038;SDS011;71610;42.628;23.378;2024-02-26T10:18:53;76.97;;;9.37;;
82038;SDS011;71610;42.628;23.378;2024-02-26T10:21:22;44.83;;;8.02;;
82038;SDS011;71610;42.628;23.378;2024-02-26T10:23:48;44.28;;;7.30;;
82038;SDS011;71610;42.628;23.378;2024-02-26T10:26:15;47.65;;;6.85;;
82038;SDS011;71610;42.628;23.378;2024-02-26T10:28:42;42.47;;;7.70;;
82038;SDS011;71610;42.628;23.378;2024-02-26T10:31:09;37.03;;;7.10;;
82038;SDS011;71610;42.628;23.378;2024-02-26T10:33:36;39.03;;;6.15;;
82038;SDS011;71610;42.628;23.378;2024-02-26T10:36:05;43.05;;;7.13;;
82038;SDS011;71610;42.628;23.378;2024-02-26T10:38:35;35.08;;;6.47;;
82038;SDS011;71610;42.628;23.378;2024-02-26T10:41:02;38.63;;;6.78;;
82038;SDS011;71610;42.628;23.378;2024-02-26T10:43:28;46.60;;;6.78;;
82038;SDS011;71610;42.628;23.378;2024-02-26T10:45:54;34.88;;;6.22;;
82038;SDS011;71610;42.628;23.378;2024-02-26T10:48:21;44.28;;;6.47;;
82038;SDS011;71610;42.628;23.378;2024-02-26T10:50:47;51.72;;;7.15;;
82038;SDS011;71610;42.628;23.378;2024-02-26T10:53:16;29.98;;;5.53;;
82038;SDS011;71610;42.628;23.378;2024-02-26T10:55:46;62.63;;;6.68;;
82038;SDS011;71610;42.628;23.378;2024-02-26T10:58:29;23.40;;;5.72;;
82038;SDS011;71610;42.628;23.378;2024-02-26T11:00:57;22.58;;;5.68;;
82038;SDS011;71610;42.628;23.378;2024-02-26T11:03:24;30.73;;;5.53;;
82038;SDS011;71610;42.628;23.378;2024-02-26T11:05:51;22.77;;;5.30;;
82038;SDS011;71610;42.628;23.378;2024-02-26T11:08:21;35.03;;;6.03;;
82038;SDS011;71610;42.628;23.378;2024-02-26T11:10:49;26.52;;;5.15;;
82038;SDS011;71610;42.628;23.378;2024-02-26T11:13:18;33.58;;;5.68;;
82038;SDS011;71610;42.628;23.378;2024-02-26T11:15:45;17.10;;;4.47;;
82038;SDS011;71610;42.628;23.378;2024-02-26T11:18:13;36.33;;;5.22;;
82038;SDS011;71610;42.628;23.378;2024-02-26T11:20:43;25.55;;;5.07;;
82038;SDS011;71610;42.628;23.378;2024-02-26T11:23:11;20.25;;;4.43;;
82038;SDS011;71610;42.628;23.378;2024-02-26T11:25:36;16.48;;;4.50;;
82038;SDS011;71610;42.628;23.378;2024-02-26T11:28:05;19.65;;;4.68;;
82038;SDS011;71610;42.628;23.378;2024-02-26T11:30:35;22.40;;;4.63;;
82038;SDS011;71610;42.628;23.378;2024-02-26T11:33:06;16.08;;;4.30;;
82038;SDS011;71610;42.628;23.378;2024-02-26T11:35:33;13.60;;;3.90;;
82038;SDS011;71610;42.628;23.378;2024-02-26T11:38:01;19.80;;;4.55;;
82038;SDS011;71610;42.628;23.378;2024-02-26T11:40:28;12.05;;;3.83;;
82038;SDS011;71610;42.628;23.378;2024-02-26T11:42:56;24.65;;;4.50;;
82038;SDS011;71610;42.628;23.378;2024-02-26T11:48:20;13.70;;;3.95;;
82038;SDS011;71610;42.628;23.378;2024-02-26T11:50:55;16.85;;;4.32;;
82038;SDS011;71610;42.628;23.378;2024-02-26T11:53:27;11.48;;;4.07;;
82038;SDS011;71610;42.628;23.378;2024-02-26T11:58:59;10.55;;;4.22;;
82038;SDS011;71610;42.628;23.378;2024-02-26T12:04:25;9.23;;;3.95;;
82038;SDS011;71610;42.628;23.378;2024-02-26T12:06:57;12.48;;;3.78;;
82038;SDS011;71610;42.628;23.378;2024-02-26T12:09:31;15.68;;;3.65;;
82038;SDS011;71610;42.628;23.378;2024-02-26T12:12:05;11.38;;;4.20;;
82038;SDS011;71610;42.628;23.378;2024-02-26T12:14:39;17.70;;;3.92;;
82038;SDS011;71610;42.628;23.378;2024-02-26T12:19:44;11.98;;;3.60;;
82038;SDS011;71610;42.628;23.378;2024-02-26T12:22:12;12.95;;;2.97;;
82038;SDS011;71610;42.628;23.378;2024-02-26T12:24:39;9.27;;;3.63;;
82038;SDS011;71610;42.628;23.378;2024-02-26T12:27:05;12.23;;;3.90;;
82038;SDS011;71610;42.628;23.378;2024-02-26T12:29:31;11.82;;;3.53;;
82038;SDS011;71610;42.628;23.378;2024-02-26T12:31:57;7.38;;;3.40;;
82038;SDS011;71610;42.628;23.378;2024-02-26T12:34:23;11.75;;;3.42;;
82038;SDS011;71610;42.628;23.378;2024-02-26T12:36:49;12.38;;;3.78;;
82038;SDS011;71610;42.628;23.378;2024-02-26T12:39:15;6.20;;;3.08;;
82038;SDS011;71610;42.628;23.378;2024-02-26T12:41:41;7.63;;;3.40;;
82038;SDS011;71610;42.628;23.378;2024-02-26T12:44:14;6.30;;;3.28;;
82038;SDS011;71610;42.628;23.378;2024-02-26T12:46:43;16.10;;;3.60;;
82038;SDS011;71610;42.628;23.378;2024-02-26T12:49:09;15.80;;;3.58;;
82038;SDS011;71610;42.628;23.378;2024-02-26T12:51:41;13.60;;;3.63;;
82038;SDS011;71610;42.628;23.378;2024-02-26T12:54:07;15.60;;;3.50;;
82038;SDS011;71610;42.628;23.378;2024-02-26T12:56:33;14.88;;;3.55;;
82038;SDS011;71610;42.628;23.378;2024-02-26T12:58:59;11.98;;;3.50;;
82038;SDS011;71610;42.628;23.378;2024-02-26T13:01:27;15.60;;;2.83;;
82038;SDS011;71610;42.628;23.378;2024-02-26T13:03:53;18.40;;;4.00;;
82038;SDS011;71610;42.628;23.378;2024-02-26T13:06:19;14.43;;;3.45;;
82038;SDS011;71610;42.628;23.378;2024-02-26T13:08:47;26.88;;;3.20;;
82038;SDS011;71610;42.628;23.378;2024-02-26T13:11:12;9.80;;;3.03;;
82038;SDS011;71610;42.628;23.378;2024-02-26T13:13:39;15.73;;;3.55;;
82038;SDS011;71610;42.628;23.378;2024-02-26T13:16:05;10.55;;;3.42;;
82038;SDS011;71610;42.628;23.378;2024-02-26T13:18:38;15.98;;;3.63;;
82038;SDS011;71610;42.628;23.378;2024-02-26T13:21:08;11.57;;;3.28;;
82038;SDS011;71610;42.628;23.378;2024-02-26T13:23:41;9.88;;;3.13;;
82038;SDS011;71610;42.628;23.378;2024-02-26T13:26:08;20.17;;;3.55;;
82038;SDS011;71610;42.628;23.378;2024-02-26T13:28:36;21.03;;;3.90;;
82038;SDS011;71610;42.628;23.378;2024-02-26T13:31:02;31.00;;;4.47;;
82038;SDS011;71610;42.628;23.378;2024-02-26T13:33:31;24.70;;;3.90;;
82038;SDS011;71610;42.628;23.378;2024-02-26T13:35:57;23.83;;;3.80;;
82038;SDS011;71610;42.628;23.378;2024-02-26T13:38:24;28.05;;;3.95;;
82038;SDS011;71610;42.628;23.378;2024-02-26T13:40:50;23.00;;;3.72;;
82038;SDS011;71610;42.628;23.378;2024-02-26T13:43:16;18.98;;;3.92;;
82038;SDS011;71610;42.628;23.378;2024-02-26T13:45:43;24.00;;;3.63;;
82038;SDS011;71610;42.628;23.378;2024-02-26T13:48:09;27.48;;;3.90;;
82038;SDS011;71610;42.628;23.378;2024-02-26T13:50:36;34.63;;;4.32;;
82038;SDS011;71610;42.628;23.378;2024-02-26T13:53:03;26.83;;;3.90;;
82038;SDS011;71610;42.628;23.378;2024-02-26T13:55:30;21.98;;;3.95;;
82038;SDS011;71610;42.628;23.378;2024-02-26T13:58:00;26.70;;;4.43;;
82038;SDS011;71610;42.628;23.378;2024-02-26T14:00:27;23.20;;;3.72;;
82038;SDS011;71610;42.628;23.378;2024-02-26T14:02:54;17.85;;;4.03;;
82038;SDS011;71610;42.628;23.378;2024-02-26T14:05:20;20.63;;;3.88;;
82038;SDS011;71610;42.628;23.378;2024-02-26T14:07:45;24.65;;;4.38;;
82038;SDS011;71610;42.628;23.378;2024-02-26T14:10:11;19.30;;;4.28;;
82038;SDS011;71610;42.628;23.378;2024-02-26T14:12:38;23.52;;;3.60;;
82038;SDS011;71610;42.628;23.378;2024-02-26T14:15:07;24.42;;;3.92;;
82038;SDS011;71610;42.628;23.378;2024-02-26T14:17:33;24.90;;;3.80;;
82038;SDS011;71610;42.628;23.378;2024-02-26T14:19:59;35.95;;;3.90;;
82038;SDS011;71610;42.628;23.378;2024-02-26T14:22:25;40.13;;;5.05;;
82038;SDS011;71610;42.628;23.378;2024-02-26T14:24:55;26.10;;;5.25;;
82038;SDS011;71610;42.628;23.378;2024-02-26T14:27:21;32.00;;;4.00;;
82038;SDS011;71610;42.628;23.378;2024-02-26T14:29:48;17.90;;;3.70;;
82038;SDS011;71610;42.628;23.378;2024-02-26T14:32:14;29.23;;;4.10;;
82038;SDS011;71610;42.628;23.378;2024-02-26T14:34:40;18.20;;;3.95;;
82038;SDS011;71610;42.628;23.378;2024-02-26T14:37:06;21.95;;;3.95;;
82038;SDS011;71610;42.628;23.378;2024-02-26T14:39:31;16.77;;;3.78;;
82038;SDS011;71610;42.628;23.378;2024-02-26T14:41:58;21.42;;;3.80;;
82038;SDS011;71610;42.628;23.378;2024-02-26T14:44:24;26.73;;;4.07;;